Lyerly, Georgia
Current Conditions -  °F | °C
As of 10:53 AM on Wednesday 22 Oct 2014 (Local Time) from KRMG Reporting Station
Clear Clear  
Wind Chill: 58°   Ceiling: Unl
Heat Index: 58°   Visibility: 10mi
Dew Point: 42°   Wind: 16mph
Humidity: 56%   Direction: 10°N
Pressure: 30.16"   Gusts: NA
Location:  34.4°N, 85.4°W
Report Text: KRMG 221453Z AUTO 01014KT 10SM CLR 14/06 A3016 RMK AO2 SLP209 T01440056 50011
Loading
Personal Weather Stations






























Interactive Weather Map New forecast layout! Learn more

10-Day Weather Forecast

Advertisements
Track Severe Weather on mobile